sensor_id;sensor_type;location;lat;lon;timestamp;pressure;altitude;pressure_sealevel;temperature;humidity
27840;BME280;15207;42.182;24.308;2023-04-22T00:01:32;98969.41;;;13.26;97.69
27840;BME280;15207;42.182;24.308;2023-04-22T00:03:58;98978.00;;;13.30;97.31
27840;BME280;15207;42.182;24.308;2023-04-22T00:06:23;98985.34;;;13.38;97.34
27840;BME280;15207;42.182;24.308;2023-04-22T00:08:49;98972.34;;;13.33;96.96
27840;BME280;15207;42.182;24.308;2023-04-22T00:11:14;98975.44;;;13.38;96.83
27840;BME280;15207;42.182;24.308;2023-04-22T00:13:40;98982.78;;;13.36;97.00
27840;BME280;15207;42.182;24.308;2023-04-22T00:16:05;98979.56;;;13.32;97.08
27840;BME280;15207;42.182;24.308;2023-04-22T00:18:34;98981.66;;;13.39;96.80
27840;BME280;15207;42.182;24.308;2023-04-22T00:21:00;98973.44;;;13.40;95.39
27840;BME280;15207;42.182;24.308;2023-04-22T00:23:25;98971.31;;;13.54;94.96
27840;BME280;15207;42.182;24.308;2023-04-22T00:25:51;98970.72;;;13.50;93.84
27840;BME280;15207;42.182;24.308;2023-04-22T00:28:16;98977.66;;;13.53;93.27
27840;BME280;15207;42.182;24.308;2023-04-22T00:30:42;98970.31;;;13.55;92.52
27840;BME280;15207;42.182;24.308;2023-04-22T00:33:07;98971.31;;;13.44;92.52
27840;BME280;15207;42.182;24.308;2023-04-22T00:35:33;98969.66;;;13.33;93.11
27840;BME280;15207;42.182;24.308;2023-04-22T00:37:58;98968.53;;;13.26;93.26
27840;BME280;15207;42.182;24.308;2023-04-22T00:40:24;98968.41;;;13.27;93.67
27840;BME280;15207;42.182;24.308;2023-04-22T00:42:50;98972.03;;;13.36;92.67
27840;BME280;15207;42.182;24.308;2023-04-22T00:45:16;98975.44;;;13.38;91.77
27840;BME280;15207;42.182;24.308;2023-04-22T00:47:46;98976.88;;;13.22;91.17
27840;BME280;15207;42.182;24.308;2023-04-22T00:50:12;98984.31;;;13.11;92.11
27840;BME280;15207;42.182;24.308;2023-04-22T00:52:38;98976.72;;;12.86;92.79
27840;BME280;15207;42.182;24.308;2023-04-22T00:55:03;98986.22;;;12.80;93.94
27840;BME280;15207;42.182;24.308;2023-04-22T00:57:30;98980.72;;;12.52;94.91
27840;BME280;15207;42.182;24.308;2023-04-22T00:59:56;98985.09;;;12.43;96.34
27840;BME280;15207;42.182;24.308;2023-04-22T01:02:22;98992.31;;;12.33;97.47
27840;BME280;15207;42.182;24.308;2023-04-22T01:04:48;98990.31;;;12.35;98.06
27840;BME280;15207;42.182;24.308;2023-04-22T01:07:14;98989.63;;;12.33;98.62
27840;BME280;15207;42.182;24.308;2023-04-22T01:09:40;98992.59;;;12.20;99.14
27840;BME280;15207;42.182;24.308;2023-04-22T01:12:06;98989.31;;;12.26;99.16
27840;BME280;15207;42.182;24.308;2023-04-22T01:14:31;98982.66;;;12.21;100.00
27840;BME280;15207;42.182;24.308;2023-04-22T01:16:57;98984.66;;;12.19;100.00
27840;BME280;15207;42.182;24.308;2023-04-22T01:19:23;98987.34;;;12.28;100.00
27840;BME280;15207;42.182;24.308;2023-04-22T01:21:50;98989.31;;;12.26;100.00
27840;BME280;15207;42.182;24.308;2023-04-22T01:24:16;98986.78;;;12.25;100.00
27840;BME280;15207;42.182;24.308;2023-04-22T01:26:42;98975.91;;;12.26;100.00
27840;BME280;15207;42.182;24.308;2023-04-22T01:29:07;98982.97;;;12.27;99.60
27840;BME280;15207;42.182;24.308;2023-04-22T01:31:33;98977.72;;;12.26;99.27
27840;BME280;15207;42.182;24.308;2023-04-22T01:34:00;98966.84;;;12.27;99.13
27840;BME280;15207;42.182;24.308;2023-04-22T01:36:26;98971.53;;;12.35;99.14
27840;BME280;15207;42.182;24.308;2023-04-22T01:38:52;98964.16;;;12.27;98.30
27840;BME280;15207;42.182;24.308;2023-04-22T01:41:18;98977.44;;;12.09;98.62
27840;BME280;15207;42.182;24.308;2023-04-22T01:43:44;98974.28;;;12.04;99.04
27840;BME280;15207;42.182;24.308;2023-04-22T01:46:10;98973.72;;;12.00;99.15
27840;BME280;15207;42.182;24.308;2023-04-22T01:48:36;98971.75;;;12.02;99.00
27840;BME280;15207;42.182;24.308;2023-04-22T01:51:02;98970.44;;;11.97;98.53
27840;BME280;15207;42.182;24.308;2023-04-22T01:53:28;98962.13;;;11.90;98.96
27840;BME280;15207;42.182;24.308;2023-04-22T01:55:53;98961.56;;;11.96;99.25
27840;BME280;15207;42.182;24.308;2023-04-22T01:58:19;98962.84;;;11.92;99.75
27840;BME280;15207;42.182;24.308;2023-04-22T02:00:44;98954.47;;;11.85;99.17
27840;BME280;15207;42.182;24.308;2023-04-22T02:03:10;98969.72;;;11.75;99.39
27840;BME280;15207;42.182;24.308;2023-04-22T02:05:38;98964.59;;;11.62;99.82
27840;BME280;15207;42.182;24.308;2023-04-22T02:08:04;98969.88;;;11.42;99.93
27840;BME280;15207;42.182;24.308;2023-04-22T02:10:30;98964.31;;;11.24;100.00
27840;BME280;15207;42.182;24.308;2023-04-22T02:12:55;98971.50;;;11.23;100.00
27840;BME280;15207;42.182;24.308;2023-04-22T02:15:21;98971.34;;;11.15;100.00
27840;BME280;15207;42.182;24.308;2023-04-22T02:17:47;98965.66;;;11.08;100.00
27840;BME280;15207;42.182;24.308;2023-04-22T02:20:12;98974.47;;;10.99;100.00
27840;BME280;15207;42.182;24.308;2023-04-22T02:22:39;98976.84;;;10.92;100.00
27840;BME280;15207;42.182;24.308;2023-04-22T02:25:06;98976.16;;;11.00;100.00
27840;BME280;15207;42.182;24.308;2023-04-22T02:27:32;98974.75;;;10.75;100.00
27840;BME280;15207;42.182;24.308;2023-04-22T02:29:58;98973.25;;;10.82;100.00
27840;BME280;15207;42.182;24.308;2023-04-22T02:32:23;98967.88;;;10.61;100.00
27840;BME280;15207;42.182;24.308;2023-04-22T02:34:49;98972.44;;;10.49;100.00
27840;BME280;15207;42.182;24.308;2023-04-22T02:37:15;98966.91;;;10.62;100.00
27840;BME280;15207;42.182;24.308;2023-04-22T02:39:40;98976.25;;;10.35;100.00
27840;BME280;15207;42.182;24.308;2023-04-22T02:42:06;98966.88;;;10.40;100.00
27840;BME280;15207;42.182;24.308;2023-04-22T02:44:32;98975.19;;;10.26;100.00
27840;BME280;15207;42.182;24.308;2023-04-22T02:46:57;98969.63;;;10.17;100.00
27840;BME280;15207;42.182;24.308;2023-04-22T02:49:23;98976.53;;;10.20;100.00
27840;BME280;15207;42.182;24.308;2023-04-22T02:51:48;98972.81;;;10.11;100.00
27840;BME280;15207;42.182;24.308;2023-04-22T02:54:14;98970.84;;;10.13;100.00
27840;BME280;15207;42.182;24.308;2023-04-22T02:56:39;98972.34;;;10.06;100.00
27840;BME280;15207;42.182;24.308;2023-04-22T02:59:05;98971.34;;;10.07;100.00
27840;BME280;15207;42.182;24.308;2023-04-22T03:01:30;98970.19;;;9.88;100.00
27840;BME280;15207;42.182;24.308;2023-04-22T03:03:56;98973.28;;;9.72;100.00
27840;BME280;15207;42.182;24.308;2023-04-22T03:06:21;98984.19;;;9.81;100.00
27840;BME280;15207;42.182;24.308;2023-04-22T03:08:47;98978.34;;;9.75;100.00
27840;BME280;15207;42.182;24.308;2023-04-22T03:11:12;98983.97;;;9.61;100.00
27840;BME280;15207;42.182;24.308;2023-04-22T03:13:38;98983.38;;;9.57;100.00
27840;BME280;15207;42.182;24.308;2023-04-22T03:16:04;98980.81;;;9.56;100.00
27840;BME280;15207;42.182;24.308;2023-04-22T03:18:29;98977.66;;;9.50;100.00
27840;BME280;15207;42.182;24.308;2023-04-22T03:20:55;98971.97;;;9.55;100.00
27840;BME280;15207;42.182;24.308;2023-04-22T03:23:20;98977.31;;;9.55;100.00
27840;BME280;15207;42.182;24.308;2023-04-22T03:25:45;98979.88;;;9.57;100.00
27840;BME280;15207;42.182;24.308;2023-04-22T03:28:11;98976.56;;;9.64;100.00
27840;BME280;15207;42.182;24.308;2023-04-22T03:30:36;98979.34;;;9.74;100.00
27840;BME280;15207;42.182;24.308;2023-04-22T03:33:02;98976.44;;;9.77;100.00
27840;BME280;15207;42.182;24.308;2023-04-22T03:35:27;98990.03;;;9.74;100.00
27840;BME280;15207;42.182;24.308;2023-04-22T03:37:53;98987.47;;;9.73;100.00
27840;BME280;15207;42.182;24.308;2023-04-22T03:40:18;98985.63;;;9.85;100.00
27840;BME280;15207;42.182;24.308;2023-04-22T03:42:44;98983.44;;;9.90;100.00
27840;BME280;15207;42.182;24.308;2023-04-22T03:45:09;98987.34;;;9.97;100.00
27840;BME280;15207;42.182;24.308;2023-04-22T03:47:35;98982.44;;;10.02;99.78
27840;BME280;15207;42.182;24.308;2023-04-22T03:50:00;98988.03;;;9.99;99.04
27840;BME280;15207;42.182;24.308;2023-04-22T03:52:26;98993.75;;;10.06;98.80
27840;BME280;15207;42.182;24.308;2023-04-22T03:54:51;98989.09;;;10.08;98.18
27840;BME280;15207;42.182;24.308;2023-04-22T03:57:17;99001.19;;;9.91;97.96
27840;BME280;15207;42.182;24.308;2023-04-22T03:59:42;99005.47;;;9.71;98.63
27840;BME280;15207;42.182;24.308;2023-04-22T04:02:07;99008.66;;;9.64;99.12
27840;BME280;15207;42.182;24.308;2023-04-22T04:04:33;99010.81;;;9.48;99.29
27840;BME280;15207;42.182;24.308;2023-04-22T04:06:59;99015.69;;;9.43;100.00
27840;BME280;15207;42.182;24.308;2023-04-22T04:09:25;99017.16;;;9.47;100.00
27840;BME280;15207;42.182;24.308;2023-04-22T04:11:51;99016.91;;;9.50;99.99
27840;BME280;15207;42.182;24.308;2023-04-22T04:14:16;99014.25;;;9.50;99.86
27840;BME280;15207;42.182;24.308;2023-04-22T04:16:43;99023.72;;;9.65;99.29
27840;BME280;15207;42.182;24.308;2023-04-22T04:19:08;99023.94;;;9.74;97.89
27840;BME280;15207;42.182;24.308;2023-04-22T04:21:34;99026.38;;;9.77;97.73
27840;BME280;15207;42.182;24.308;2023-04-22T04:24:01;99029.78;;;9.68;98.02
27840;BME280;15207;42.182;24.308;2023-04-22T04:26:26;99031.59;;;9.78;98.26
27840;BME280;15207;42.182;24.308;2023-04-22T04:28:52;99038.66;;;9.79;98.42
27840;BME280;15207;42.182;24.308;2023-04-22T04:31:18;99032.44;;;9.90;98.37
27840;BME280;15207;42.182;24.308;2023-04-22T04:33:43;99037.03;;;10.11;98.68
27840;BME280;15207;42.182;24.308;2023-04-22T04:36:10;99035.31;;;10.22;97.66
27840;BME280;15207;42.182;24.308;2023-04-22T04:38:36;99034.28;;;10.34;96.30
27840;BME280;15207;42.182;24.308;2023-04-22T04:41:02;99043.16;;;10.46;95.46
27840;BME280;15207;42.182;24.308;2023-04-22T04:43:28;99034.94;;;10.59;95.50
27840;BME280;15207;42.182;24.308;2023-04-22T04:45:53;99034.94;;;10.59;95.03
27840;BME280;15207;42.182;24.308;2023-04-22T04:48:19;99041.09;;;10.71;95.35
27840;BME280;15207;42.182;24.308;2023-04-22T04:50:45;99037.41;;;10.83;94.30
27840;BME280;15207;42.182;24.308;2023-04-22T04:53:11;99037.69;;;11.02;94.83
27840;BME280;15207;42.182;24.308;2023-04-22T04:55:37;99038.72;;;11.10;94.49
27840;BME280;15207;42.182;24.308;2023-04-22T04:58:03;99037.84;;;11.31;93.91
27840;BME280;15207;42.182;24.308;2023-04-22T05:00:29;99051.22;;;11.53;91.92
27840;BME280;15207;42.182;24.308;2023-04-22T05:02:54;99053.31;;;11.49;92.04
27840;BME280;15207;42.182;24.308;2023-04-22T05:05:20;99046.78;;;11.42;92.43
27840;BME280;15207;42.182;24.308;2023-04-22T05:07:45;99051.00;;;11.34;93.16
27840;BME280;15207;42.182;24.308;2023-04-22T05:10:11;99038.28;;;11.36;93.18
27840;BME280;15207;42.182;24.308;2023-04-22T05:12:37;99049.28;;;11.55;92.42
27840;BME280;15207;42.182;24.308;2023-04-22T05:15:03;99047.25;;;11.78;91.86
27840;BME280;15207;42.182;24.308;2023-04-22T05:17:29;99045.69;;;11.75;91.85
27840;BME280;15207;42.182;24.308;2023-04-22T05:19:54;99042.66;;;12.00;91.87
27840;BME280;15207;42.182;24.308;2023-04-22T05:22:20;99042.41;;;12.13;91.08
27840;BME280;15207;42.182;24.308;2023-04-22T05:24:46;99043.00;;;12.16;91.52
27840;BME280;15207;42.182;24.308;2023-04-22T05:27:12;99051.66;;;12.30;91.17
27840;BME280;15207;42.182;24.308;2023-04-22T05:29:37;99042.03;;;12.57;90.51
27840;BME280;15207;42.182;24.308;2023-04-22T05:32:02;99042.03;;;12.77;89.21
27840;BME280;15207;42.182;24.308;2023-04-22T05:34:28;99051.78;;;12.98;88.69
27840;BME280;15207;42.182;24.308;2023-04-22T05:36:53;99049.75;;;13.29;87.01
27840;BME280;15207;42.182;24.308;2023-04-22T05:39:19;99050.22;;;13.25;86.58
27840;BME280;15207;42.182;24.308;2023-04-22T05:41:44;99043.88;;;13.64;85.62
27840;BME280;15207;42.182;24.308;2023-04-22T05:44:10;99053.56;;;13.84;85.88
27840;BME280;15207;42.182;24.308;2023-04-22T05:46:35;99043.59;;;14.23;84.06
27840;BME280;15207;42.182;24.308;2023-04-22T05:49:01;99042.28;;;14.27;81.30
27840;BME280;15207;42.182;24.308;2023-04-22T05:51:27;99050.75;;;14.14;82.92
27840;BME280;15207;42.182;24.308;2023-04-22T05:53:52;99045.59;;;14.21;82.54
27840;BME280;15207;42.182;24.308;2023-04-22T05:56:19;99051.28;;;14.18;82.35
27840;BME280;15207;42.182;24.308;2023-04-22T05:58:45;99048.56;;;13.99;84.51
27840;BME280;15207;42.182;24.308;2023-04-22T06:01:11;99054.00;;;14.08;83.53
27840;BME280;15207;42.182;24.308;2023-04-22T06:03:37;99051.13;;;14.19;82.07
27840;BME280;15207;42.182;24.308;2023-04-22T06:06:02;99048.97;;;14.23;80.70
27840;BME280;15207;42.182;24.308;2023-04-22T06:08:29;99046.78;;;14.36;81.76
27840;BME280;15207;42.182;24.308;2023-04-22T06:10:55;99039.75;;;14.44;81.27
27840;BME280;15207;42.182;24.308;2023-04-22T06:13:20;99039.53;;;14.55;80.65
27840;BME280;15207;42.182;24.308;2023-04-22T06:15:46;99055.03;;;14.89;78.80
27840;BME280;15207;42.182;24.308;2023-04-22T06:18:11;99059.50;;;14.99;76.28
27840;BME280;15207;42.182;24.308;2023-04-22T06:20:37;99051.75;;;15.22;75.82
27840;BME280;15207;42.182;24.308;2023-04-22T06:23:03;99052.28;;;15.52;74.73
27840;BME280;15207;42.182;24.308;2023-04-22T06:25:30;99063.03;;;15.79;72.46
27840;BME280;15207;42.182;24.308;2023-04-22T06:27:57;99056.78;;;15.78;70.25
27840;BME280;15207;42.182;24.308;2023-04-22T06:30:23;99055.09;;;15.77;71.95
27840;BME280;15207;42.182;24.308;2023-04-22T06:32:50;99063.03;;;16.05;70.93
27840;BME280;15207;42.182;24.308;2023-04-22T06:35:16;99060.25;;;16.32;69.96
27840;BME280;15207;42.182;24.308;2023-04-22T06:37:42;99058.75;;;16.46;67.65
27840;BME280;15207;42.182;24.308;2023-04-22T06:40:09;99058.25;;;16.59;65.72
27840;BME280;15207;42.182;24.308;2023-04-22T06:42:35;99058.44;;;16.65;63.59
27840;BME280;15207;42.182;24.308;2023-04-22T06:45:01;99065.88;;;16.88;63.54
27840;BME280;15207;42.182;24.308;2023-04-22T06:47:27;99057.09;;;16.86;62.84
27840;BME280;15207;42.182;24.308;2023-04-22T06:49:52;99063.38;;;16.87;62.17
27840;BME280;15207;42.182;24.308;2023-04-22T06:52:18;99056.78;;;16.89;63.23
27840;BME280;15207;42.182;24.308;2023-04-22T06:54:44;99057.44;;;16.91;62.28
27840;BME280;15207;42.182;24.308;2023-04-22T06:57:09;99061.84;;;17.09;61.98
27840;BME280;15207;42.182;24.308;2023-04-22T06:59:35;99065.59;;;17.08;61.39
27840;BME280;15207;42.182;24.308;2023-04-22T07:02:00;99062.69;;;17.26;62.72
27840;BME280;15207;42.182;24.308;2023-04-22T07:04:25;99061.94;;;17.66;63.61
27840;BME280;15207;42.182;24.308;2023-04-22T07:06:53;99053.72;;;17.91;61.04
27840;BME280;15207;42.182;24.308;2023-04-22T07:09:19;99060.66;;;18.10;61.09
27840;BME280;15207;42.182;24.308;2023-04-22T07:11:45;99052.47;;;18.18;59.77
27840;BME280;15207;42.182;24.308;2023-04-22T07:14:10;99052.56;;;18.33;58.45
27840;BME280;15207;42.182;24.308;2023-04-22T07:16:36;99055.59;;;18.39;57.78
27840;BME280;15207;42.182;24.308;2023-04-22T07:19:03;99052.47;;;18.18;58.83
27840;BME280;15207;42.182;24.308;2023-04-22T07:21:30;99049.28;;;18.46;58.30
27840;BME280;15207;42.182;24.308;2023-04-22T07:23:57;99052.75;;;18.79;56.40
27840;BME280;15207;42.182;24.308;2023-04-22T07:26:23;99053.19;;;18.67;56.65
27840;BME280;15207;42.182;24.308;2023-04-22T07:28:48;99056.16;;;18.81;57.77
27840;BME280;15207;42.182;24.308;2023-04-22T07:31:14;99054.81;;;19.00;56.87
27840;BME280;15207;42.182;24.308;2023-04-22T07:33:40;99051.78;;;19.18;54.53
27840;BME280;15207;42.182;24.308;2023-04-22T07:36:05;99051.44;;;18.98;54.85
27840;BME280;15207;42.182;24.308;2023-04-22T07:38:31;99055.13;;;18.82;55.58
27840;BME280;15207;42.182;24.308;2023-04-22T07:40:57;99057.75;;;18.67;56.18
27840;BME280;15207;42.182;24.308;2023-04-22T07:43:22;99054.09;;;18.59;57.96
27840;BME280;15207;42.182;24.308;2023-04-22T07:45:47;99045.84;;;18.53;57.46
27840;BME280;15207;42.182;24.308;2023-04-22T07:48:13;99050.72;;;17.85;58.22
27840;BME280;15207;42.182;24.308;2023-04-22T07:50:38;99043.78;;;17.83;58.52
27840;BME280;15207;42.182;24.308;2023-04-22T07:53:04;99048.47;;;17.49;59.27
27840;BME280;15207;42.182;24.308;2023-04-22T07:55:30;99037.16;;;17.29;60.37
27840;BME280;15207;42.182;24.308;2023-04-22T07:57:56;99037.31;;;17.44;61.51
27840;BME280;15207;42.182;24.308;2023-04-22T08:00:21;99044.72;;;17.58;60.99
27840;BME280;15207;42.182;24.308;2023-04-22T08:02:47;99043.28;;;17.88;59.37
27840;BME280;15207;42.182;24.308;2023-04-22T08:05:12;99037.63;;;17.41;59.44
27840;BME280;15207;42.182;24.308;2023-04-22T08:07:38;99031.56;;;17.39;60.76
27840;BME280;15207;42.182;24.308;2023-04-22T08:10:05;99030.69;;;17.47;61.56
27840;BME280;15207;42.182;24.308;2023-04-22T08:12:31;99021.25;;;18.31;60.19
27840;BME280;15207;42.182;24.308;2023-04-22T08:14:56;99023.38;;;18.67;57.39
27840;BME280;15207;42.182;24.308;2023-04-22T08:17:22;99028.91;;;18.74;57.26
27840;BME280;15207;42.182;24.308;2023-04-22T08:19:48;99020.19;;;19.02;56.78
27840;BME280;15207;42.182;24.308;2023-04-22T08:22:14;99020.56;;;19.52;54.70
27840;BME280;15207;42.182;24.308;2023-04-22T08:24:41;99020.28;;;19.62;53.21
27840;BME280;15207;42.182;24.308;2023-04-22T08:27:07;99017.94;;;19.29;54.10
27840;BME280;15207;42.182;24.308;2023-04-22T08:29:32;99020.31;;;19.09;54.45
27840;BME280;15207;42.182;24.308;2023-04-22T08:31:58;99021.28;;;19.16;56.03
27840;BME280;15207;42.182;24.308;2023-04-22T08:34:23;99017.69;;;19.54;55.01
27840;BME280;15207;42.182;24.308;2023-04-22T08:36:50;99014.00;;;19.92;54.41
27840;BME280;15207;42.182;24.308;2023-04-22T08:39:16;99007.53;;;19.93;54.11
27840;BME280;15207;42.182;24.308;2023-04-22T08:41:43;99000.31;;;20.37;52.18
27840;BME280;15207;42.182;24.308;2023-04-22T08:44:10;99002.81;;;20.54;51.48
27840;BME280;15207;42.182;24.308;2023-04-22T08:46:36;98999.84;;;20.48;51.25
27840;BME280;15207;42.182;24.308;2023-04-22T08:49:02;99000.91;;;20.32;51.36
27840;BME280;15207;42.182;24.308;2023-04-22T08:51:30;99006.34;;;19.65;53.04
27840;BME280;15207;42.182;24.308;2023-04-22T08:53:58;99004.53;;;19.73;52.89
27840;BME280;15207;42.182;24.308;2023-04-22T08:56:24;98997.81;;;19.53;52.65
27840;BME280;15207;42.182;24.308;2023-04-22T08:58:50;98998.66;;;19.84;53.23
27840;BME280;15207;42.182;24.308;2023-04-22T09:01:17;98994.34;;;20.05;52.33
27840;BME280;15207;42.182;24.308;2023-04-22T09:03:43;98983.63;;;20.40;51.26
27840;BME280;15207;42.182;24.308;2023-04-22T09:06:10;98984.47;;;20.41;49.15
27840;BME280;15207;42.182;24.308;2023-04-22T09:08:37;98980.69;;;20.20;49.45
27840;BME280;15207;42.182;24.308;2023-04-22T09:11:03;98975.88;;;19.85;51.92
27840;BME280;15207;42.182;24.308;2023-04-22T09:13:28;98966.50;;;19.88;51.75
27840;BME280;15207;42.182;24.308;2023-04-22T09:15:54;98967.06;;;19.98;51.36
27840;BME280;15207;42.182;24.308;2023-04-22T09:18:19;98960.31;;;20.09;50.93
27840;BME280;15207;42.182;24.308;2023-04-22T09:20:52;98952.16;;;20.09;50.73
27840;BME280;15207;42.182;24.308;2023-04-22T09:23:18;98951.88;;;20.04;49.57
27840;BME280;15207;42.182;24.308;2023-04-22T09:25:44;98947.56;;;19.94;50.17
27840;BME280;15207;42.182;24.308;2023-04-22T09:28:11;98941.94;;;19.96;49.51
27840;BME280;15207;42.182;24.308;2023-04-22T09:30:43;98939.97;;;20.05;48.96
27840;BME280;15207;42.182;24.308;2023-04-22T09:33:10;98926.81;;;20.24;49.51
27840;BME280;15207;42.182;24.308;2023-04-22T09:35:39;98927.91;;;20.51;48.35
27840;BME280;15207;42.182;24.308;2023-04-22T09:38:07;98921.34;;;20.45;48.19
27840;BME280;15207;42.182;24.308;2023-04-22T09:40:34;98914.88;;;20.46;48.25
27840;BME280;15207;42.182;24.308;2023-04-22T09:43:04;98914.34;;;20.36;46.39
27840;BME280;15207;42.182;24.308;2023-04-22T09:45:38;98909.53;;;20.31;45.33
27840;BME280;15207;42.182;24.308;2023-04-22T09:48:09;98904.53;;;19.76;46.64
27840;BME280;15207;42.182;24.308;2023-04-22T09:50:42;98904.72;;;19.75;47.49
27840;BME280;15207;42.182;24.308;2023-04-22T09:53:09;98892.19;;;19.59;47.37
27840;BME280;15207;42.182;24.308;2023-04-22T09:55:41;98897.59;;;19.74;47.82
27840;BME280;15207;42.182;24.308;2023-04-22T09:58:16;98889.97;;;19.99;47.09
27840;BME280;15207;42.182;24.308;2023-04-22T10:00:51;98888.44;;;20.62;46.58
27840;BME280;15207;42.182;24.308;2023-04-22T10:03:17;98877.03;;;20.23;45.82
27840;BME280;15207;42.182;24.308;2023-04-22T10:05:43;98886.19;;;20.00;47.84
27840;BME280;15207;42.182;24.308;2023-04-22T10:08:11;98881.50;;;20.09;47.51
27840;BME280;15207;42.182;24.308;2023-04-22T10:10:37;98887.09;;;20.51;46.43
27840;BME280;15207;42.182;24.308;2023-04-22T10:13:04;98890.00;;;20.28;45.37
27840;BME280;15207;42.182;24.308;2023-04-22T10:15:49;98877.16;;;19.78;47.05
27840;BME280;15207;42.182;24.308;2023-04-22T10:18:20;98882.66;;;20.21;46.50
27840;BME280;15207;42.182;24.308;2023-04-22T10:20:47;98878.59;;;19.95;47.54
27840;BME280;15207;42.182;24.308;2023-04-22T10:23:17;98883.53;;;19.70;48.20
27840;BME280;15207;42.182;24.308;2023-04-22T10:25:46;98872.03;;;19.68;47.84
27840;BME280;15207;42.182;24.308;2023-04-22T10:28:15;98878.09;;;19.85;47.75
27840;BME280;15207;42.182;24.308;2023-04-22T10:30:40;98874.03;;;19.96;48.24
27840;BME280;15207;42.182;24.308;2023-04-22T10:41:29;98874.56;;;19.69;43.11
27840;BME280;15207;42.182;24.308;2023-04-22T10:44:07;98870.97;;;19.84;44.74
27840;BME280;15207;42.182;24.308;2023-04-22T10:49:09;98884.91;;;19.59;47.53
27840;BME280;15207;42.182;24.308;2023-04-22T10:51:42;98890.44;;;19.88;46.72
27840;BME280;15207;42.182;24.308;2023-04-22T10:57:15;98922.00;;;20.26;43.55
27840;BME280;15207;42.182;24.308;2023-04-22T10:59:54;98934.91;;;19.35;43.93
27840;BME280;15207;42.182;24.308;2023-04-22T11:02:23;98940.00;;;18.22;46.00
27840;BME280;15207;42.182;24.308;2023-04-22T11:04:49;98947.03;;;17.28;47.71
27840;BME280;15207;42.182;24.308;2023-04-22T11:09:52;98946.75;;;16.73;49.47
27840;BME280;15207;42.182;24.308;2023-04-22T11:15:29;98968.88;;;17.10;47.49
27840;BME280;15207;42.182;24.308;2023-04-22T11:17:55;98962.94;;;17.15;48.66
27840;BME280;15207;42.182;24.308;2023-04-22T11:20:21;98971.34;;;17.37;48.90
27840;BME280;15207;42.182;24.308;2023-04-22T11:22:52;98965.81;;;17.22;50.48
27840;BME280;15207;42.182;24.308;2023-04-22T11:25:18;98958.03;;;17.02;53.24
27840;BME280;15207;42.182;24.308;2023-04-22T11:27:45;98958.91;;;17.02;54.02
27840;BME280;15207;42.182;24.308;2023-04-22T11:30:16;98957.41;;;16.75;58.81
27840;BME280;15207;42.182;24.308;2023-04-22T11:32:46;98956.41;;;16.59;61.36
27840;BME280;15207;42.182;24.308;2023-04-22T11:35:15;98951.00;;;16.51;58.63
27840;BME280;15207;42.182;24.308;2023-04-22T11:37:43;98963.31;;;16.53;65.25
27840;BME280;15207;42.182;24.308;2023-04-22T11:40:12;98969.06;;;16.50;73.82
27840;BME280;15207;42.182;24.308;2023-04-22T11:42:38;98965.84;;;16.38;74.24
27840;BME280;15207;42.182;24.308;2023-04-22T11:45:05;98960.94;;;16.34;74.80
27840;BME280;15207;42.182;24.308;2023-04-22T11:47:32;98956.69;;;15.63;79.96
27840;BME280;15207;42.182;24.308;2023-04-22T11:50:03;98960.19;;;15.20;85.36
27840;BME280;15207;42.182;24.308;2023-04-22T11:55:43;98968.13;;;15.22;88.83
27840;BME280;15207;42.182;24.308;2023-04-22T11:58:09;98972.47;;;15.41;95.92
27840;BME280;15207;42.182;24.308;2023-04-22T12:00:43;98978.84;;;15.40;92.86
27840;BME280;15207;42.182;24.308;2023-04-22T12:03:17;98970.38;;;15.35;90.20
27840;BME280;15207;42.182;24.308;2023-04-22T12:06:07;98972.13;;;15.10;89.03
27840;BME280;15207;42.182;24.308;2023-04-22T12:08:34;98966.41;;;14.86;90.40
27840;BME280;15207;42.182;24.308;2023-04-22T12:11:07;98969.25;;;14.66;85.83
27840;BME280;15207;42.182;24.308;2023-04-22T12:16:11;98951.88;;;14.43;89.31
27840;BME280;15207;42.182;24.308;2023-04-22T12:18:39;98965.50;;;14.41;86.78
27840;BME280;15207;42.182;24.308;2023-04-22T12:21:08;98974.56;;;14.58;91.50
27840;BME280;15207;42.182;24.308;2023-04-22T12:23:43;98976.78;;;14.63;85.38
27840;BME280;15207;42.182;24.308;2023-04-22T12:26:10;98986.09;;;14.87;89.08
27840;BME280;15207;42.182;24.308;2023-04-22T12:28:37;98994.06;;;15.15;84.58
27840;BME280;15207;42.182;24.308;2023-04-22T12:31:03;99000.44;;;15.40;84.86
27840;BME280;15207;42.182;24.308;2023-04-22T12:33:28;99002.41;;;15.30;83.43
27840;BME280;15207;42.182;24.308;2023-04-22T12:35:54;99021.28;;;15.30;82.40
27840;BME280;15207;42.182;24.308;2023-04-22T12:38:19;99026.66;;;15.30;83.55
27840;BME280;15207;42.182;24.308;2023-04-22T12:40:45;99037.41;;;15.48;85.92
27840;BME280;15207;42.182;24.308;2023-04-22T12:43:10;99043.16;;;15.53;82.12
27840;BME280;15207;42.182;24.308;2023-04-22T12:45:36;99055.19;;;15.94;88.23
27840;BME280;15207;42.182;24.308;2023-04-22T12:48:02;99062.59;;;15.57;82.14
27840;BME280;15207;42.182;24.308;2023-04-22T12:50:28;99061.00;;;15.81;83.18
27840;BME280;15207;42.182;24.308;2023-04-22T12:52:53;99059.50;;;16.21;80.02
27840;BME280;15207;42.182;24.308;2023-04-22T12:55:19;99059.03;;;16.26;75.76
27840;BME280;15207;42.182;24.308;2023-04-22T12:57:47;99066.16;;;16.35;76.08
27840;BME280;15207;42.182;24.308;2023-04-22T13:00:14;99072.06;;;16.39;73.70
27840;BME280;15207;42.182;24.308;2023-04-22T13:02:45;99065.19;;;16.45;74.27
27840;BME280;15207;42.182;24.308;2023-04-22T13:05:11;99071.91;;;16.49;71.08
27840;BME280;15207;42.182;24.308;2023-04-22T13:07:38;99077.66;;;16.54;70.83
27840;BME280;15207;42.182;24.308;2023-04-22T13:10:06;99072.94;;;16.48;69.91
27840;BME280;15207;42.182;24.308;2023-04-22T13:12:32;99068.56;;;16.55;73.36